Time;durP1;ratioP1;P1;durP2;ratioP2;P2;SDS_P1;SDS_P2;PMS_P1;PMS_P2;Temp;Humidity;BMP_temperature;BMP_pressure;BME280_temperature;BME280_humidity;BME280_pressure;Samples;Min_cycle;Max_cycle;Signal;HPM_P1;HPM_P2
2021/05/14 00:01:45;;;;;;;15.95;12.15;;;;;;;8.61;100.00;100681.66;10358991;28;20061;-77
2021/05/14 00:06:46;;;;;;;15.23;10.48;;;;;;;8.21;100.00;100644.91;10358244;28;20054;-77
2021/05/14 00:11:47;;;;;;;13.82;10.68;;;;;;;8.41;100.00;100688.88;10353761;28;20042;-78
2021/05/14 00:16:47;;;;;;;16.77;11.23;;;;;;;8.36;100.00;100687.19;10355419;28;20065;-78
2021/05/14 00:21:48;;;;;;;15.25;11.88;;;;;;;8.30;100.00;100683.22;10352044;28;20038;-78
2021/05/14 00:26:48;;;;;;;14.75;11.68;;;;;;;8.25;100.00;100675.38;10353067;28;20045;-78
2021/05/14 00:31:49;;;;;;;23.10;14.77;;;;;;;8.15;100.00;100665.13;10355683;28;20045;-77
2021/05/14 00:36:49;;;;;;;21.77;15.52;;;;;;;8.10;100.00;100657.31;10336812;28;20034;-79
2021/05/14 00:41:50;;;;;;;19.50;15.20;;;;;;;8.17;100.00;100679.03;10351283;28;20026;-77
2021/05/14 00:46:51;;;;;;;17.45;13.50;;;;;;;8.09;100.00;100671.88;10353213;28;20136;-77
2021/05/14 00:51:51;;;;;;;20.08;13.90;;;;;;;8.06;100.00;100678.75;10353267;28;20474;-77
2021/05/14 00:56:52;;;;;;;18.40;13.68;;;;;;;8.13;100.00;100687.00;10348590;28;20065;-77
2021/05/14 01:01:53;;;;;;;18.60;14.23;;;;;;;8.01;100.00;100682.47;10335449;28;20056;-78
2021/05/14 01:06:53;;;;;;;18.70;13.98;;;;;;;7.66;100.00;100622.34;10353791;28;20033;-77
2021/05/14 01:11:54;;;;;;;22.38;14.80;;;;;;;7.78;100.00;100659.94;10353252;28;20406;-78
2021/05/14 01:16:54;;;;;;;25.88;17.20;;;;;;;7.39;100.00;100624.72;10370199;28;20184;-79
2021/05/14 01:21:55;;;;;;;28.17;20.52;;;;;;;7.19;100.00;100611.09;10321962;28;20049;-78
2021/05/14 01:26:55;;;;;;;29.98;18.55;;;;;;;7.41;100.00;100681.63;10349943;28;20114;-77
2021/05/14 01:31:56;;;;;;;28.55;17.95;;;;;;;7.43;100.00;100679.34;10351954;28;20034;-78
2021/05/14 01:36:56;;;;;;;23.83;17.63;;;;;;;7.01;100.00;100620.56;10353060;28;20053;-77
2021/05/14 01:41:57;;;;;;;24.90;17.10;;;;;;;7.34;100.00;100676.06;10352778;28;20116;-76
2021/05/14 01:46:58;;;;;;;26.27;18.98;;;;;;;7.35;100.00;100682.97;10351901;28;20033;-78
2021/05/14 01:51:58;;;;;;;33.60;19.85;;;;;;;7.15;100.00;100637.13;10350459;28;20045;-78
2021/05/14 01:56:59;;;;;;;27.08;19.58;;;;;;;7.39;100.00;100662.34;10348949;28;20465;-78
2021/05/14 02:01:59;;;;;;;27.50;18.98;;;;;;;7.40;100.00;100670.06;10351734;28;20586;-79
2021/05/14 02:07:00;;;;;;;33.75;22.60;;;;;;;7.06;100.00;100622.25;10351004;28;20042;-79
2021/05/14 02:12:01;;;;;;;29.40;20.25;;;;;;;6.90;100.00;100611.41;10352444;28;22367;-76
2021/05/14 02:17:01;;;;;;;29.27;19.40;;;;;;;6.77;100.00;100622.19;10349664;28;20071;-77
2021/05/14 02:22:03;;;;;;;28.17;18.83;;;;;;;6.98;100.00;100664.25;10331547;28;20030;-78
2021/05/14 02:27:04;;;;;;;30.45;18.67;;;;;;;6.96;100.00;100671.84;10344550;28;20509;-77
2021/05/14 02:32:05;;;;;;;29.17;19.23;;;;;;;6.76;100.00;100631.34;10350796;28;20495;-77
2021/05/14 02:37:06;;;;;;;24.70;16.83;;;;;;;6.35;100.00;100574.13;10353736;28;20038;-78
2021/05/14 02:42:08;;;;;;;26.20;18.77;;;;;;;6.92;100.00;100654.84;10352802;28;20110;-78
2021/05/14 02:47:09;;;;;;;27.05;17.90;;;;;;;6.57;100.00;100607.00;10352688;28;20153;-77
2021/05/14 02:52:09;;;;;;;25.95;17.52;;;;;;;6.81;100.00;100648.38;10350037;28;20140;-77
2021/05/14 02:57:10;;;;;;;23.35;16.60;;;;;;;6.82;100.00;100652.63;10343956;28;20054;-78
2021/05/14 03:02:15;;;;;;;28.02;18.38;;;;;;;6.33;100.00;100587.09;10347289;28;20061;-80
2021/05/14 03:07:16;;;;;;;29.52;19.08;;;;;;;6.77;100.00;100649.06;10346963;28;20041;-77
2021/05/14 03:12:16;;;;;;;32.78;20.67;;;;;;;6.78;100.00;100666.72;10355112;28;20078;-76
2021/05/14 03:17:17;;;;;;;32.20;21.60;;;;;;;6.66;100.00;100637.19;10352313;28;20038;-78
2021/05/14 03:22:18;;;;;;;32.40;21.50;;;;;;;6.78;100.00;100650.63;10373809;28;20042;-77
2021/05/14 03:27:18;;;;;;;31.88;22.15;;;;;;;6.80;100.00;100663.72;10356325;28;20120;-77
2021/05/14 03:32:19;;;;;;;35.50;22.60;;;;;;;6.78;100.00;100666.72;10340488;28;20467;-78
2021/05/14 03:37:19;;;;;;;36.50;22.33;;;;;;;6.76;100.00;100663.59;10359760;28;20091;-78
2021/05/14 03:42:25;;;;;;;34.05;23.25;;;;;;;6.70;100.00;100643.47;10359416;28;20037;-77
2021/05/14 03:47:26;;;;;;;35.00;22.33;;;;;;;6.60;100.00;100622.41;10353626;28;20064;-78
2021/05/14 03:52:26;;;;;;;37.85;23.30;;;;;;;6.77;100.00;100659.00;10353232;28;20269;-77
2021/05/14 03:57:27;;;;;;;31.75;21.48;;;;;;;6.74;100.00;100644.34;10356630;28;20048;-78
2021/05/14 04:02:28;;;;;;;36.63;23.23;;;;;;;6.63;100.00;100632.50;10353877;28;20038;-78
2021/05/14 04:07:28;;;;;;;38.28;24.90;;;;;;;6.78;100.00;100645.25;10367092;28;20046;-78
2021/05/14 04:17:35;;;;;;;37.20;23.55;;;;;;;6.51;100.00;100605.63;10366441;28;20038;-79
2021/05/14 04:22:35;;;;;;;36.30;23.95;;;;;;;6.83;100.00;100662.25;10352856;28;20034;-79
2021/05/14 04:27:36;;;;;;;38.13;24.77;;;;;;;6.84;100.00;100647.69;10356048;28;20049;-79
2021/05/14 04:32:36;;;;;;;38.97;23.35;;;;;;;6.88;100.00;100653.97;10355252;28;20480;-79
2021/05/14 04:37:37;;;;;;;39.33;24.73;;;;;;;6.95;100.00;100648.81;10356432;28;20052;-78
2021/05/14 04:42:37;;;;;;;43.15;26.00;;;;;;;6.63;100.00;100597.59;10357152;28;20411;-79
2021/05/14 04:47:38;;;;;;;42.45;26.83;;;;;;;7.04;100.00;100646.78;10334162;28;20153;-79
2021/05/14 04:52:38;;;;;;;40.83;27.17;;;;;;;7.06;100.00;100641.84;10365438;28;20062;-80
2021/05/14 04:57:39;;;;;;;39.78;25.52;;;;;;;7.08;100.00;100642.28;10345082;28;20059;-81
2021/05/14 05:02:39;;;;;;;41.42;25.55;;;;;;;7.00;100.00;100616.31;10353512;28;20049;-78
2021/05/14 05:07:40;;;;;;;38.45;24.90;;;;;;;7.23;100.00;100631.94;10372121;28;20042;-77
2021/05/14 05:12:40;;;;;;;38.65;24.48;;;;;;;7.34;100.00;100611.50;10349343;28;20043;-79
2021/05/14 05:17:41;;;;;;;46.20;30.13;;;;;;;7.66;100.00;100638.47;10351785;28;20057;-78
2021/05/14 05:22:42;;;;;;;40.22;24.95;;;;;;;7.81;100.00;100651.19;10351037;28;20052;-78
2021/05/14 05:27:42;;;;;;;43.85;24.38;;;;;;;7.86;100.00;100648.25;10352390;28;20537;-80
2021/05/14 05:32:43;;;;;;;38.28;23.98;;;;;;;7.83;100.00;100622.00;10316417;28;20049;-79
2021/05/14 05:37:44;;;;;;;34.08;22.77;;;;;;;8.25;100.00;100659.22;10347535;28;20057;-78
2021/05/14 05:42:44;;;;;;;38.90;24.00;;;;;;;8.09;100.00;100612.66;10346874;28;20057;-77
2021/05/14 05:47:45;;;;;;;34.22;22.65;;;;;;;8.48;100.00;100655.94;10333826;28;20038;-78
2021/05/14 05:52:45;;;;;;;47.15;24.98;;;;;;;8.52;100.00;100656.81;10353660;28;20097;-78
2021/05/14 05:57:46;;;;;;;34.38;22.08;;;;;;;8.82;100.00;100679.47;10333228;28;20040;-78
2021/05/14 06:02:46;;;;;;;35.40;22.67;;;;;;;9.01;100.00;100677.94;10351114;28;20364;-78
2021/05/14 06:07:47;;;;;;;34.83;21.48;;;;;;;9.24;100.00;100686.94;10334719;28;20038;-78
2021/05/14 06:12:47;;;;;;;31.23;21.33;;;;;;;9.14;100.00;100633.53;10356932;28;20104;-79
2021/05/14 06:17:49;;;;;;;34.67;22.15;;;;;;;9.47;100.00;100643.03;10345107;28;20117;-78
2021/05/14 06:22:50;;;;;;;29.02;20.50;;;;;;;9.80;100.00;100641.72;10351996;28;20052;-78
2021/05/14 06:27:50;;;;;;;28.35;20.30;;;;;;;10.53;100.00;100694.69;10352578;28;20053;-77
2021/05/14 06:32:51;;;;;;;25.45;18.67;;;;;;;10.52;100.00;100636.38;10346888;28;20135;-77
2021/05/14 06:37:52;;;;;;;29.33;17.83;;;;;;;10.85;100.00;100699.81;10351765;28;20050;-77
2021/05/14 06:42:52;;;;;;;25.67;17.15;;;;;;;10.81;100.00;100682.75;10346438;28;20042;-77
2021/05/14 06:48:01;;;;;;;22.33;15.55;;;;;;;10.65;100.00;100660.50;10341279;28;20046;-79
2021/05/14 06:53:02;;;;;;;22.20;15.60;;;;;;;10.91;100.00;100692.97;10339589;28;20954;-78
2021/05/14 06:58:03;;;;;;;23.23;14.90;;;;;;;10.77;100.00;100668.41;10355390;28;20597;-79
2021/05/14 07:03:04;;;;;;;22.70;14.88;;;;;;;11.23;100.00;100719.69;10339154;28;20045;-78
2021/05/14 07:08:04;;;;;;;23.48;14.73;;;;;;;11.47;100.00;100706.81;10336064;28;20512;-79
2021/05/14 07:13:05;;;;;;;17.08;13.00;;;;;;;11.66;100.00;100714.78;10341190;28;20038;-79
2021/05/14 07:18:06;;;;;;;14.68;12.18;;;;;;;12.02;100.00;100715.22;10351434;28;20046;-77
2021/05/14 07:23:06;;;;;;;19.65;10.93;;;;;;;13.02;100.00;100672.59;10358632;28;20038;-79
2021/05/14 07:28:07;;;;;;;10.98;8.85;;;;;;;14.80;89.52;100714.19;10358036;28;20038;-78
2021/05/14 07:33:07;;;;;;;12.90;9.23;;;;;;;17.01;75.91;100721.53;10354249;28;20030;-81
2021/05/14 07:38:11;;;;;;;11.70;9.43;;;;;;;19.03;65.31;100720.25;10337343;28;20057;-79
2021/05/14 07:43:12;;;;;;;11.13;9.48;;;;;;;20.27;59.77;100711.34;10370895;28;20034;-79
2021/05/14 07:48:21;;;;;;;10.32;8.18;;;;;;;20.99;56.74;100720.53;10354258;28;20033;-78
2021/05/14 07:53:21;;;;;;;13.05;10.90;;;;;;;21.80;52.81;100702.16;10354427;28;20049;-77
2021/05/14 07:58:22;;;;;;;11.70;10.43;;;;;;;21.99;52.19;100691.34;10339811;28;20449;-79
2021/05/14 08:03:29;;;;;;;12.73;10.77;;;;;;;22.27;51.53;100726.28;10355737;28;20050;-77
2021/05/14 08:08:36;;;;;;;13.77;11.45;;;;;;;22.86;49.84;100720.38;10354815;28;20117;-78
2021/05/14 08:13:45;;;;;;;14.02;11.68;;;;;;;23.06;49.13;100731.13;10354545;28;20041;-78
2021/05/14 08:18:46;;;;;;;16.08;12.77;;;;;;;22.80;49.65;100718.19;10354831;28;20128;-79
2021/05/14 08:23:46;;;;;;;12.25;10.90;;;;;;;22.97;46.80;100731.78;10353804;28;20030;-78
2021/05/14 08:28:47;;;;;;;15.00;11.50;;;;;;;23.32;47.22;100729.00;10337285;28;20034;-76
2021/05/14 08:33:47;;;;;;;15.50;12.85;;;;;;;23.34;47.42;100726.56;10343831;28;20121;-77
2021/05/14 08:38:48;;;;;;;13.45;11.38;;;;;;;22.68;47.12;100721.75;10355230;28;20427;-77
2021/05/14 08:43:48;;;;;;;16.17;13.35;;;;;;;21.86;49.74;100708.63;10340011;28;20399;-78
2021/05/14 08:48:53;;;;;;;17.50;14.95;;;;;;;22.65;48.86;100706.13;10353727;28;20037;-77
2021/05/14 08:54:04;;;;;;;17.92;13.02;;;;;;;23.18;49.42;100703.47;10355722;28;20045;-77
2021/05/14 08:59:04;;;;;;;15.52;13.73;;;;;;;23.20;46.93;100731.38;10365849;28;20483;-75
2021/05/14 09:04:11;;;;;;;16.27;13.75;;;;;;;22.64;46.55;100715.59;10347427;28;20037;-74
2021/05/14 09:09:14;;;;;;;16.55;13.60;;;;;;;22.57;49.38;100726.84;10352852;28;20030;-74
2021/05/14 09:14:34;;;;;;;16.70;14.52;;;;;;;22.05;50.47;100717.88;10349916;28;20058;-75
2021/05/14 09:19:37;;;;;;;19.13;13.93;;;;;;;21.29;51.93;100732.31;10351956;28;20441;-74
2021/05/14 09:24:39;;;;;;;18.85;15.77;;;;;;;19.79;57.06;100737.53;10348076;28;20057;-75
2021/05/14 09:29:40;;;;;;;18.67;16.37;;;;;;;18.61;61.40;100714.31;10351753;28;20038;-74
2021/05/14 09:34:40;;;;;;;21.77;17.65;;;;;;;18.00;64.61;100721.50;10351793;28;20026;-75
2021/05/14 09:39:41;;;;;;;20.60;17.10;;;;;;;17.40;64.90;100698.47;10346352;28;20026;-74
2021/05/14 09:44:42;;;;;;;21.52;19.20;;;;;;;17.03;68.57;100708.25;10346617;28;20553;-75
2021/05/14 09:49:43;;;;;;;20.15;16.80;;;;;;;16.65;67.74;100694.53;10349576;28;20033;-75
2021/05/14 09:54:44;;;;;;;22.70;17.75;;;;;;;16.63;68.82;100713.31;10350136;28;20562;-74
2021/05/14 09:59:50;;;;;;;20.88;16.50;;;;;;;16.99;68.07;100726.63;10345839;28;20030;-74
2021/05/14 10:04:52;;;;;;;19.52;15.52;;;;;;;17.13;66.20;100696.44;10335872;28;20229;-73
2021/05/14 10:09:56;;;;;;;17.00;14.43;;;;;;;17.00;63.10;100682.53;10349139;28;20034;-74
2021/05/14 10:14:58;;;;;;;20.98;14.75;;;;;;;17.06;65.33;100712.91;10350341;28;20074;-73
2021/05/14 10:19:59;;;;;;;17.88;15.68;;;;;;;17.00;66.11;100726.25;10348600;28;20026;-75
2021/05/14 10:25:00;;;;;;;16.52;14.32;;;;;;;18.03;64.70;100707.00;10367118;28;20041;-74
2021/05/14 10:30:00;;;;;;;18.20;14.52;;;;;;;19.07;58.05;100720.94;10356035;28;20056;-74
2021/05/14 10:35:03;;;;;;;18.73;14.43;;;;;;;18.63;58.55;100684.56;10357244;28;20423;-77
2021/05/14 10:40:04;;;;;;;16.17;13.50;;;;;;;19.39;58.60;100710.13;10361831;28;20037;-78
2021/05/14 10:45:05;;;;;;;13.48;10.75;;;;;;;20.46;51.79;100695.22;10355984;28;20033;-77
2021/05/14 10:50:31;;;;;;;13.43;10.23;;;;;;;21.45;49.92;100702.00;10359081;28;20425;-76
2021/05/14 10:55:32;;;;;;;12.40;8.52;;;;;;;21.32;47.51;100709.44;10347743;28;20388;-78
2021/05/14 11:00:35;;;;;;;12.98;9.70;;;;;;;20.47;49.70;100707.75;10353635;28;20045;-75
2021/05/14 11:05:37;;;;;;;13.50;11.45;;;;;;;19.28;53.36;100698.59;10338405;28;20046;-75
2021/05/14 11:10:39;;;;;;;12.02;10.07;;;;;;;19.12;53.51;100714.97;10353196;28;20117;-75
2021/05/14 11:15:40;;;;;;;14.27;11.98;;;;;;;18.58;54.08;100689.31;10353426;28;20489;-75
2021/05/14 11:20:44;;;;;;;15.13;11.30;;;;;;;18.41;55.64;100693.13;10353780;28;20033;-76
2021/05/14 11:25:45;;;;;;;17.73;12.35;;;;;;;18.31;56.97;100688.59;10351745;28;20033;-75
2021/05/14 11:30:58;;;;;;;15.32;13.57;;;;;;;17.98;55.59;100699.28;10350410;28;20700;-76
2021/05/14 11:35:58;;;;;;;;;;;;;;;17.59;56.90;100700.56;10354805;28;20129;-76
2021/05/14 11:41:03;;;;;;;17.42;13.65;;;;;;;17.25;59.62;100682.25;10335687;28;19921;-73
2021/05/14 11:46:10;;;;;;;14.43;12.77;;;;;;;17.02;60.00;100702.00;10359483;28;20041;-78
2021/05/14 11:51:14;;;;;;;17.98;14.55;;;;;;;16.45;62.84;100686.94;10355033;28;20049;-80
2021/05/14 11:56:15;;;;;;;20.10;14.82;;;;;;;16.16;64.17;100707.44;10353805;28;20417;-75
2021/05/14 12:01:15;;;;;;;25.50;16.30;;;;;;;15.76;62.43;100701.44;10353503;28;20048;-75
2021/05/14 12:06:16;;;;;;;18.52;14.25;;;;;;;15.63;61.50;100731.81;10356980;28;20491;-75
2021/05/14 12:11:18;;;;;;;16.65;12.48;;;;;;;15.49;63.41;100720.22;10340549;28;20493;-75
2021/05/14 12:16:19;;;;;;;16.60;13.48;;;;;;;15.64;68.95;100733.41;10356383;28;20069;-76
2021/05/14 12:21:27;;;;;;;23.30;16.83;;;;;;;15.21;75.59;100690.00;10336304;28;20125;-77
2021/05/14 12:26:29;;;;;;;20.10;17.00;;;;;;;15.19;77.63;100725.00;10357335;28;20073;-76
2021/05/14 12:31:31;;;;;;;22.85;19.33;;;;;;;15.43;80.49;100722.59;10353616;28;20387;-76
2021/05/14 12:36:33;;;;;;;25.83;21.23;;;;;;;15.81;85.07;100720.09;10357052;28;20061;-76
2021/05/14 12:41:36;;;;;;;22.40;18.85;;;;;;;17.10;81.75;100724.56;10349676;28;20029;-77
2021/05/14 12:46:38;;;;;;;25.10;19.08;;;;;;;17.29;77.45;100688.44;10346624;28;20033;-80
2021/05/14 12:51:39;;;;;;;20.35;17.48;;;;;;;18.08;71.80;100725.69;10363407;28;20100;-77
2021/05/14 12:56:40;;;;;;;24.70;18.27;;;;;;;17.19;74.24;100694.81;10348953;28;20511;-78
2021/05/14 13:01:47;;;;;;;29.75;17.25;;;;;;;16.69;76.89;100717.13;10347434;28;20038;-78
2021/05/14 13:07:00;;;;;;;19.85;16.13;;;;;;;16.59;76.48;100740.59;10357153;28;20030;-78
2021/05/14 13:12:01;;;;;;;;;;;;;;;16.47;74.00;100755.50;10351841;28;20168;-77
2021/05/14 13:17:01;;;;;;;19.38;14.70;;;;;;;16.28;73.48;100731.50;10349493;28;20008;-78
2021/05/14 13:22:02;;;;;;;20.30;14.90;;;;;;;16.39;72.96;100737.66;10362965;28;20041;-78
2021/05/14 13:27:03;;;;;;;20.90;16.08;;;;;;;16.24;73.02;100774.38;10351220;28;20486;-76
2021/05/14 13:32:04;;;;;;;17.55;13.50;;;;;;;15.75;71.79;100727.13;10346186;28;20030;-75
2021/05/14 13:37:04;;;;;;;16.75;13.63;;;;;;;15.96;71.53;100764.41;10351465;28;20111;-73
2021/05/14 13:42:05;;;;;;;17.50;13.10;;;;;;;15.57;72.28;100744.31;10311668;28;20054;-75
2021/05/14 13:47:06;;;;;;;13.35;9.40;;;;;;;15.45;71.26;100774.72;10362868;28;20037;-76
2021/05/14 13:52:07;;;;;;;7.03;6.18;;;;;;;14.98;70.35;100784.91;10345051;28;20769;-75
2021/05/14 13:57:07;;;;;;;9.20;5.90;;;;;;;14.72;73.25;100789.59;10346633;28;20042;-76
2021/05/14 14:02:09;;;;;;;8.38;7.03;;;;;;;14.76;74.42;100789.59;10343371;28;20058;-76
2021/05/14 14:07:09;;;;;;;19.80;14.40;;;;;;;14.78;75.61;100782.59;10344189;28;20474;-76
2021/05/14 14:12:10;;;;;;;10.30;8.93;;;;;;;14.63;78.21;100791.94;10346161;28;20042;-75
2021/05/14 14:17:10;;;;;;;255.70;209.05;;;;;;;14.93;76.94;100782.59;10316013;28;20042;-76
2021/05/14 14:22:11;;;;;;;12.23;9.95;;;;;;;14.89;75.10;100743.72;10346482;28;20505;-76
2021/05/14 14:27:14;;;;;;;6.55;3.95;;;;;;;14.66;74.56;100731.28;10346971;28;20058;-76
2021/05/14 14:32:15;;;;;;;7.45;4.90;;;;;;;15.49;72.41;100761.84;10345189;28;20656;-77
2021/05/14 14:37:16;;;;;;;5.70;3.58;;;;;;;14.88;71.55;100693.16;10347258;28;20090;-77
2021/05/14 14:42:16;;;;;;;6.82;5.00;;;;;;;15.09;72.05;100753.00;10347630;28;20124;-77
2021/05/14 14:47:18;;;;;;;6.05;4.30;;;;;;;14.95;72.43;100710.25;10346228;28;20049;-76
2021/05/14 14:52:18;;;;;;;5.80;4.50;;;;;;;15.44;71.85;100745.91;10343207;28;20143;-75
2021/05/14 14:57:18;;;;;;;13.95;4.85;;;;;;;15.41;70.38;100741.28;10356620;28;20142;-76
2021/05/14 15:02:19;;;;;;;7.93;5.10;;;;;;;15.14;74.63;100706.31;10315771;28;20045;-74
2021/05/14 15:07:19;;;;;;;5.25;4.50;;;;;;;15.27;72.18;100708.63;10351489;28;20029;-74
2021/05/14 15:12:20;;;;;;;78.10;70.50;;;;;;;15.43;69.72;100733.47;10348716;28;20081;-76
2021/05/14 15:17:22;;;;;;;37.88;29.92;;;;;;;15.16;72.34;100687.66;10355532;28;20068;-74
2021/05/14 15:22:23;;;;;;;183.80;135.40;;;;;;;15.47;72.71;100734.22;10355357;28;20227;-75
2021/05/14 15:27:23;;;;;;;10.90;8.60;;;;;;;15.43;72.12;100706.25;10357697;28;20269;-83
2021/05/14 15:32:25;;;;;;;7.88;4.70;;;;;;;15.60;72.72;100716.28;10336364;28;20042;-74
2021/05/14 15:37:25;;;;;;;7.10;4.53;;;;;;;15.53;73.40;100710.84;10358032;28;20084;-76
2021/05/14 15:42:26;;;;;;;7.03;5.38;;;;;;;15.78;72.05;100702.59;10365368;28;20610;-75
2021/05/14 15:47:26;;;;;;;7.80;5.40;;;;;;;15.78;71.21;100688.19;10357848;28;20431;-74
2021/05/14 15:52:27;;;;;;;6.78;5.47;;;;;;;15.71;69.74;100660.97;10360684;28;20092;-74
2021/05/14 15:57:27;;;;;;;8.23;5.53;;;;;;;16.62;67.67;100700.81;10353467;28;20053;-77
2021/05/14 16:02:28;;;;;;;9.20;6.43;;;;;;;16.93;65.99;100714.59;10335923;28;20125;-74
2021/05/14 16:07:28;;;;;;;9.88;7.65;;;;;;;17.06;65.65;100718.38;10351631;28;20041;-75
2021/05/14 16:12:29;;;;;;;11.07;9.25;;;;;;;17.04;65.11;100715.25;10351542;28;20038;-75
2021/05/14 16:17:30;;;;;;;10.95;8.02;;;;;;;17.08;63.87;100666.84;10350841;28;20056;-75
2021/05/14 16:22:31;;;;;;;11.65;8.63;;;;;;;17.26;64.64;100700.19;10346432;28;21047;-77
2021/05/14 16:27:31;;;;;;;11.85;9.68;;;;;;;17.08;65.31;100705.09;10351539;28;20131;-75
2021/05/14 16:32:32;;;;;;;11.82;8.48;;;;;;;16.73;66.67;100720.59;10354301;28;20601;-75
2021/05/14 16:37:33;;;;;;;13.45;9.85;;;;;;;16.76;66.02;100684.31;10334912;28;20439;-76
2021/05/14 16:42:33;;;;;;;14.88;10.80;;;;;;;16.93;65.69;100720.06;10351759;28;20041;-76
2021/05/14 16:47:33;;;;;;;13.38;10.40;;;;;;;16.89;65.70;100715.41;10349280;28;20670;-75
2021/05/14 16:52:34;;;;;;;15.73;9.18;;;;;;;16.71;66.27;100714.78;10353253;28;20054;-77
2021/05/14 16:57:35;;;;;;;12.32;9.70;;;;;;;16.71;67.31;100731.16;10349102;28;20034;-75
2021/05/14 17:02:36;;;;;;;15.27;9.98;;;;;;;16.41;67.70;100718.91;10350402;28;20025;-74
2021/05/14 17:07:37;;;;;;;15.25;9.77;;;;;;;16.20;68.94;100708.16;10352451;28;20041;-75
2021/05/14 17:12:39;;;;;;;16.30;10.18;;;;;;;15.89;69.33;100709.94;10348669;28;20419;-76
2021/05/14 17:17:39;;;;;;;16.10;10.90;;;;;;;15.87;69.67;100712.28;10348553;28;20641;-75
2021/05/14 17:22:40;;;;;;;17.67;9.40;;;;;;;15.79;70.48;100727.91;10366992;28;20038;-76
2021/05/14 17:27:41;;;;;;;15.98;9.43;;;;;;;15.40;69.91;100668.88;10324870;28;20038;-75
2021/05/14 17:32:41;;;;;;;16.08;9.43;;;;;;;15.36;71.19;100722.63;10339070;28;20034;-77
2021/05/14 17:37:42;;;;;;;16.50;9.05;;;;;;;15.03;72.31;100694.69;10308068;28;20037;-77
2021/05/14 17:47:59;;;;;;;16.70;8.75;;;;;;;14.63;73.77;100694.00;9987203;26;20050;-76
2021/05/14 17:53:03;;;;;;;16.05;9.30;;;;;;;14.41;76.39;100714.16;10258316;28;20516;-75
2021/05/14 17:58:04;;;;;;;18.80;9.10;;;;;;;14.21;77.48;100733.56;10250886;28;20043;-76
2021/05/14 18:03:05;;;;;;;20.20;11.38;;;;;;;13.72;77.99;100707.84;10253208;28;20113;-77
2021/05/14 18:08:05;;;;;;;21.35;11.80;;;;;;;13.80;78.73;100736.56;10236542;28;20538;-76
2021/05/14 18:13:06;;;;;;;28.10;12.27;;;;;;;13.76;78.71;100746.66;10274421;28;20054;-76
2021/05/14 18:18:11;;;;;;;19.95;12.25;;;;;;;13.61;78.38;100750.47;10275773;28;20034;-78
2021/05/14 18:23:11;;;;;;;47.17;13.38;;;;;;;13.67;79.15;100740.81;10258886;28;20038;-75
2021/05/14 18:28:12;;;;;;;22.05;12.65;;;;;;;13.43;80.10;100734.91;10251651;28;20476;-79
2021/05/14 18:33:12;;;;;;;15.77;9.73;;;;;;;13.20;80.60;100720.78;10270031;28;20120;-77
2021/05/14 18:38:14;;;;;;;19.38;10.35;;;;;;;13.04;82.05;100724.56;10259345;28;20042;-77
2021/05/14 18:43:15;;;;;;;14.70;9.15;;;;;;;13.19;83.57;100740.94;10248196;28;20054;-77
2021/05/14 18:48:16;;;;;;;18.63;9.57;;;;;;;12.73;84.33;100692.59;10276585;28;20097;-77
2021/05/14 18:53:18;;;;;;;15.73;9.77;;;;;;;12.68;85.84;100686.34;10255939;28;20046;-77
2021/05/14 18:58:19;;;;;;;20.00;9.90;;;;;;;13.17;86.95;100743.25;10284702;28;20460;-77
2021/05/14 19:03:20;;;;;;;16.52;9.77;;;;;;;13.18;93.01;100739.38;10261861;28;20054;-78
2021/05/14 19:08:20;;;;;;;22.23;11.82;;;;;;;13.21;93.43;100722.34;10258153;28;20087;-78
2021/05/14 19:13:21;;;;;;;17.55;10.65;;;;;;;12.99;97.07;100705.94;10274181;28;20550;-78
2021/05/14 19:18:22;;;;;;;23.10;10.82;;;;;;;12.90;100.00;100724.47;10264655;28;20043;-77
2021/05/14 19:49:31;;;;;;;17.80;10.02;;;;;;;11.79;100.00;100751.31;10278065;28;20039;-79
2021/05/14 19:54:39;;;;;;;18.10;9.38;;;;;;;11.59;100.00;100741.78;10271765;28;20411;-79
2021/05/14 19:59:40;;;;;;;17.35;10.75;;;;;;;11.57;100.00;100744.06;10275500;28;20038;-80
2021/05/14 20:04:41;;;;;;;20.75;10.05;;;;;;;11.62;100.00;100757.31;10285972;28;20049;-79
2021/05/14 20:09:43;;;;;;;16.65;10.52;;;;;;;11.52;100.00;100757.94;10278435;28;20506;-79
2021/05/14 20:14:44;;;;;;;22.80;10.93;;;;;;;11.18;100.00;100717.28;10271728;28;20145;-81
2021/05/14 20:19:46;;;;;;;21.23;12.18;;;;;;;11.46;100.00;100759.41;10290323;28;20077;-81
2021/05/14 20:24:50;;;;;;;;;;;;;;;11.33;100.00;100756.91;10295212;28;20038;-81
2021/05/14 20:29:51;;;;;;;16.13;10.10;;;;;;;11.25;100.00;100763.38;10261581;28;20028;-80
2021/05/14 20:34:53;;;;;;;16.90;9.60;;;;;;;11.11;100.00;100776.72;10288835;28;20061;-81
2021/05/14 20:40:04;;;;;;;18.15;8.88;;;;;;;10.93;100.00;100771.78;10255282;28;20043;-82
2021/05/14 20:45:07;;;;;;;17.95;9.48;;;;;;;10.80;100.00;100773.16;10277303;28;20201;-80
2021/05/14 20:50:09;;;;;;;15.88;9.70;;;;;;;10.70;100.00;100789.97;10282468;28;20097;-79
2021/05/14 20:55:10;;;;;;;16.85;9.73;;;;;;;10.52;100.00;100790.44;10285538;28;20043;-79
2021/05/14 21:00:14;;;;;;;19.75;11.02;;;;;;;10.23;100.00;100778.31;10243018;28;20451;-79
2021/05/14 21:05:16;;;;;;;15.70;10.20;;;;;;;10.32;100.00;100787.00;10286284;28;20475;-81
2021/05/14 21:10:17;;;;;;;15.90;11.02;;;;;;;10.30;100.00;100777.69;10269782;28;20058;-79
2021/05/14 21:15:20;;;;;;;17.38;9.93;;;;;;;10.38;100.00;100790.19;10279528;28;20566;-79
2021/05/14 21:20:21;;;;;;;16.73;11.15;;;;;;;10.28;100.00;100785.34;10275707;28;20039;-79
2021/05/14 21:25:21;;;;;;;16.27;12.02;;;;;;;9.96;100.00;100742.31;10248058;28;20039;-79
2021/05/14 21:30:22;;;;;;;14.85;11.45;;;;;;;10.19;100.00;100776.69;10287513;28;20039;-79
2021/05/14 21:35:24;;;;;;;17.75;11.57;;;;;;;10.19;100.00;100787.50;10245825;28;20073;-81
2021/05/14 21:40:26;;;;;;;18.92;11.73;;;;;;;10.14;100.00;100786.66;10266550;28;20050;-81
2021/05/14 21:45:27;;;;;;;18.63;11.33;;;;;;;10.21;100.00;100790.63;10244898;28;20385;-79
2021/05/14 21:50:29;;;;;;;18.73;12.05;;;;;;;10.18;100.00;100792.09;10233569;28;20050;-79
2021/05/14 21:55:29;;;;;;;17.00;11.23;;;;;;;10.19;100.00;100787.50;10282357;28;20500;-75
2021/05/14 22:00:29;;;;;;;19.88;12.48;;;;;;;10.03;100.00;100753.25;10239664;28;20084;-74
2021/05/14 22:05:30;;;;;;;19.95;12.32;;;;;;;10.14;100.00;100767.75;10274549;28;20416;-76
2021/05/14 22:10:30;;;;;;;18.33;12.35;;;;;;;9.50;100.00;100653.13;10278035;28;20494;-75
2021/05/14 22:15:31;;;;;;;18.92;12.93;;;;;;;10.31;100.00;100768.44;10258909;28;20046;-75
2021/05/14 22:20:32;;;;;;;17.63;12.15;;;;;;;10.12;100.00;100737.59;10282298;28;20030;-75
2021/05/14 22:25:33;;;;;;;21.20;12.25;;;;;;;9.88;100.00;100719.03;10278880;28;20039;-75
2021/05/14 22:30:34;;;;;;;22.75;12.48;;;;;;;10.19;100.00;100768.59;10281020;28;20209;-76
2021/05/14 22:35:34;;;;;;;20.17;11.23;;;;;;;10.20;100.00;100756.63;10290346;28;20117;-76
2021/05/14 22:40:35;;;;;;;19.77;11.90;;;;;;;10.03;100.00;100725.47;10287955;28;20073;-76
2021/05/14 22:45:36;;;;;;;20.00;12.00;;;;;;;10.23;100.00;100747.81;10268421;28;20375;-76
2021/05/14 22:50:38;;;;;;;19.13;11.90;;;;;;;10.13;100.00;100741.06;10303793;28;20125;-76
2021/05/14 22:55:39;;;;;;;21.52;12.98;;;;;;;9.93;100.00;100716.81;10269199;28;20039;-76
2021/05/14 23:00:39;;;;;;;19.52;12.20;;;;;;;10.05;100.00;100745.56;10304068;28;20505;-76
2021/05/14 23:05:40;;;;;;;25.45;13.38;;;;;;;9.88;100.00;100719.03;10256375;28;20050;-76
2021/05/14 23:10:40;;;;;;;18.17;12.35;;;;;;;9.94;100.00;100733.78;10288195;28;20042;-76
2021/05/14 23:15:41;;;;;;;26.63;14.82;;;;;;;9.72;100.00;100695.59;10287674;28;20054;-76